sensor_id;sensor_type;location;lat;lon;timestamp;pressure;altitude;pressure_sealevel;temperature;humidity
30339;BME280;795;49.296;11.348;2023-04-05T00:00:29;96863.91;;;-0.41;79.73
30339;BME280;795;49.296;11.348;2023-04-05T00:02:58;96754.75;;;-0.97;80.73
30339;BME280;795;49.296;11.348;2023-04-05T00:05:27;96730.16;;;-1.11;80.22
30339;BME280;795;49.296;11.348;2023-04-05T00:08:02;96818.66;;;-0.63;80.52
30339;BME280;795;49.296;11.348;2023-04-05T00:10:30;96863.06;;;-0.42;81.11
30339;BME280;795;49.296;11.348;2023-04-05T00:12:58;96733.06;;;-1.16;80.59
30339;BME280;795;49.296;11.348;2023-04-05T00:15:26;96791.88;;;-0.86;80.99
30339;BME280;795;49.296;11.348;2023-04-05T00:17:55;96870.69;;;-0.51;81.66
30339;BME280;795;49.296;11.348;2023-04-05T00:20:22;96698.00;;;-1.46;81.77
30339;BME280;795;49.296;11.348;2023-04-05T00:22:49;96858.13;;;-0.62;82.35
30339;BME280;795;49.296;11.348;2023-04-05T00:25:17;96731.13;;;-1.42;82.32
30339;BME280;795;49.296;11.348;2023-04-05T00:27:44;96717.28;;;-1.46;82.64
30339;BME280;795;49.296;11.348;2023-04-05T00:30:12;96714.25;;;-1.54;82.11
30339;BME280;795;49.296;11.348;2023-04-05T00:32:39;96744.59;;;-1.33;83.19
30339;BME280;795;49.296;11.348;2023-04-05T00:35:06;96850.56;;;-0.68;82.39
30339;BME280;795;49.296;11.348;2023-04-05T00:37:33;96850.66;;;-0.70;82.96
30339;BME280;795;49.296;11.348;2023-04-05T00:40:00;96861.28;;;-0.71;82.97
30339;BME280;795;49.296;11.348;2023-04-05T00:42:27;96828.78;;;-0.86;82.82
30339;BME280;795;49.296;11.348;2023-04-05T00:44:54;96740.13;;;-1.46;83.63
30339;BME280;795;49.296;11.348;2023-04-05T00:47:21;96797.81;;;-1.12;84.04
30339;BME280;795;49.296;11.348;2023-04-05T00:49:49;96783.22;;;-1.17;84.09
30339;BME280;795;49.296;11.348;2023-04-05T00:52:17;96784.63;;;-1.26;84.87
30339;BME280;795;49.296;11.348;2023-04-05T00:54:45;96839.28;;;-1.00;86.34
30339;BME280;795;49.296;11.348;2023-04-05T00:57:13;96808.88;;;-1.21;86.84
30339;BME280;795;49.296;11.348;2023-04-05T00:59:40;96688.59;;;-1.95;87.29
30339;BME280;795;49.296;11.348;2023-04-05T01:02:31;96733.06;;;-1.75;87.84
30339;BME280;795;49.296;11.348;2023-04-05T01:05:13;96842.94;;;-1.18;87.90
30339;BME280;795;49.296;11.348;2023-04-05T01:07:56;96801.78;;;-1.35;87.31
30339;BME280;795;49.296;11.348;2023-04-05T01:10:36;96818.94;;;-1.43;88.04
30339;BME280;795;49.296;11.348;2023-04-05T01:13:05;96816.97;;;-1.24;87.78
30339;BME280;795;49.296;11.348;2023-04-05T01:15:32;96792.63;;;-1.43;88.01
30339;BME280;795;49.296;11.348;2023-04-05T01:17:59;96784.88;;;-1.46;88.39
30339;BME280;795;49.296;11.348;2023-04-05T01:20:52;96811.00;;;-1.27;89.33
30339;BME280;795;49.296;11.348;2023-04-05T01:23:44;96812.03;;;-1.30;89.24
30339;BME280;795;49.296;11.348;2023-04-05T01:26:58;96810.16;;;-1.28;89.90
30339;BME280;795;49.296;11.348;2023-04-05T01:30:19;96792.25;;;-1.37;88.98
30339;BME280;795;49.296;11.348;2023-04-05T01:36:31;96801.56;;;-1.16;87.02
30339;BME280;795;49.296;11.348;2023-04-05T01:39:04;96675.53;;;-1.97;87.71
30339;BME280;795;49.296;11.348;2023-04-05T01:41:34;96677.47;;;-2.01;88.30
30339;BME280;795;49.296;11.348;2023-04-05T01:44:01;96786.56;;;-1.29;88.27
30339;BME280;795;49.296;11.348;2023-04-05T01:46:28;96794.34;;;-1.28;88.81
30339;BME280;795;49.296;11.348;2023-04-05T01:48:55;96751.75;;;-1.50;87.66
30339;BME280;795;49.296;11.348;2023-04-05T01:51:22;96787.59;;;-1.32;88.72
30339;BME280;795;49.296;11.348;2023-04-05T01:53:49;96507.63;;;-2.95;87.51
30339;BME280;795;49.296;11.348;2023-04-05T01:56:16;96792.84;;;-1.32;88.38
30339;BME280;795;49.296;11.348;2023-04-05T01:58:42;96731.00;;;-1.70;88.58
30339;BME280;795;49.296;11.348;2023-04-05T02:01:09;96756.78;;;-1.61;89.39
30339;BME280;795;49.296;11.348;2023-04-05T02:03:36;96783.94;;;-1.45;89.17
30339;BME280;795;49.296;11.348;2023-04-05T02:06:04;96767.06;;;-1.57;88.85
30339;BME280;795;49.296;11.348;2023-04-05T02:08:31;96784.13;;;-1.48;88.89
30339;BME280;795;49.296;11.348;2023-04-05T02:10:58;96766.56;;;-1.63;88.91
30339;BME280;795;49.296;11.348;2023-04-05T02:13:25;96770.56;;;-1.56;88.96
30339;BME280;795;49.296;11.348;2023-04-05T02:15:52;96738.16;;;-1.72;88.46
30339;BME280;795;49.296;11.348;2023-04-05T02:18:19;96777.66;;;-1.43;88.74
30339;BME280;795;49.296;11.348;2023-04-05T02:20:50;96721.59;;;-1.90;88.28
30339;BME280;795;49.296;11.348;2023-04-05T02:23:20;96779.19;;;-1.54;88.81
30339;BME280;795;49.296;11.348;2023-04-05T02:25:47;96781.59;;;-1.65;89.03
30339;BME280;795;49.296;11.348;2023-04-05T02:28:14;96752.31;;;-1.90;88.92
30339;BME280;795;49.296;11.348;2023-04-05T02:30:41;96769.06;;;-1.91;90.59
30339;BME280;795;49.296;11.348;2023-04-05T02:33:08;96788.22;;;-1.74;89.72
30339;BME280;795;49.296;11.348;2023-04-05T02:35:36;96785.25;;;-1.83;90.68
30339;BME280;795;49.296;11.348;2023-04-05T02:38:04;96787.78;;;-1.97;91.27
30339;BME280;795;49.296;11.348;2023-04-05T02:40:32;96786.03;;;-1.97;91.37
30339;BME280;795;49.296;11.348;2023-04-05T02:42:59;96787.13;;;-1.85;90.51
30339;BME280;795;49.296;11.348;2023-04-05T02:45:26;96780.91;;;-2.00;90.64
30339;BME280;795;49.296;11.348;2023-04-05T02:47:53;96768.53;;;-1.98;90.35
30339;BME280;795;49.296;11.348;2023-04-05T02:50:21;96762.16;;;-2.10;91.01
30339;BME280;795;49.296;11.348;2023-04-05T02:52:50;96776.34;;;-1.96;90.88
30339;BME280;795;49.296;11.348;2023-04-05T02:55:17;96765.28;;;-2.03;91.29
30339;BME280;795;49.296;11.348;2023-04-05T02:57:44;96737.13;;;-2.17;91.00
30339;BME280;795;49.296;11.348;2023-04-05T03:00:13;96760.88;;;-2.03;91.01
30339;BME280;795;49.296;11.348;2023-04-05T03:02:40;96773.53;;;-1.93;90.77
30339;BME280;795;49.296;11.348;2023-04-05T03:05:08;96767.44;;;-1.94;91.08
30339;BME280;795;49.296;11.348;2023-04-05T03:07:35;96731.13;;;-2.19;92.21
30339;BME280;795;49.296;11.348;2023-04-05T03:10:04;96768.53;;;-1.98;92.11
30339;BME280;795;49.296;11.348;2023-04-05T03:12:31;96749.94;;;-2.11;93.72
30339;BME280;795;49.296;11.348;2023-04-05T03:14:58;96724.41;;;-2.24;92.69
30339;BME280;795;49.296;11.348;2023-04-05T03:17:25;96757.59;;;-2.06;93.09
30339;BME280;795;49.296;11.348;2023-04-05T03:19:52;96696.91;;;-2.50;93.80
30339;BME280;795;49.296;11.348;2023-04-05T03:22:19;96754.28;;;-2.10;94.03
30339;BME280;795;49.296;11.348;2023-04-05T03:24:45;96756.81;;;-2.08;94.29
30339;BME280;795;49.296;11.348;2023-04-05T03:27:13;96747.91;;;-2.21;95.57
30339;BME280;795;49.296;11.348;2023-04-05T03:29:41;96748.56;;;-2.18;95.36
30339;BME280;795;49.296;11.348;2023-04-05T03:32:08;96746.00;;;-2.35;95.87
30339;BME280;795;49.296;11.348;2023-04-05T03:34:37;96753.88;;;-2.35;97.20
30339;BME280;795;49.296;11.348;2023-04-05T03:37:04;96653.88;;;-2.96;98.07
30339;BME280;795;49.296;11.348;2023-04-05T03:39:31;96747.25;;;-2.57;100.00
30339;BME280;795;49.296;11.348;2023-04-05T03:41:58;96738.47;;;-2.74;100.00
30339;BME280;795;49.296;11.348;2023-04-05T03:44:25;96747.06;;;-2.70;100.00
30339;BME280;795;49.296;11.348;2023-04-05T03:46:52;96721.69;;;-2.71;100.00
30339;BME280;795;49.296;11.348;2023-04-05T03:49:19;96646.22;;;-3.00;99.14
30339;BME280;795;49.296;11.348;2023-04-05T03:51:46;96744.03;;;-2.47;100.00
30339;BME280;795;49.296;11.348;2023-04-05T03:54:13;96731.44;;;-2.73;100.00
30339;BME280;795;49.296;11.348;2023-04-05T03:56:40;96714.31;;;-3.13;100.00
30339;BME280;795;49.296;11.348;2023-04-05T03:59:07;96746.19;;;-3.03;100.00
30339;BME280;795;49.296;11.348;2023-04-05T04:01:34;96744.19;;;-3.15;100.00
30339;BME280;795;49.296;11.348;2023-04-05T04:04:02;96717.56;;;-3.42;100.00
30339;BME280;795;49.296;11.348;2023-04-05T04:06:30;96693.31;;;-3.64;100.00
30339;BME280;795;49.296;11.348;2023-04-05T04:08:58;96745.44;;;-3.22;100.00
30339;BME280;795;49.296;11.348;2023-04-05T04:11:24;96752.59;;;-3.26;100.00
30339;BME280;795;49.296;11.348;2023-04-05T04:13:51;96748.81;;;-3.20;100.00
30339;BME280;795;49.296;11.348;2023-04-05T04:16:18;96701.66;;;-3.56;100.00
30339;BME280;795;49.296;11.348;2023-04-05T04:18:45;96618.63;;;-3.91;100.00
30339;BME280;795;49.296;11.348;2023-04-05T04:21:12;96721.25;;;-3.29;100.00
30339;BME280;795;49.296;11.348;2023-04-05T04:23:42;96752.34;;;-3.04;100.00
30339;BME280;795;49.296;11.348;2023-04-05T04:26:11;96754.22;;;-3.06;100.00
30339;BME280;795;49.296;11.348;2023-04-05T04:28:39;96679.81;;;-3.57;100.00
30339;BME280;795;49.296;11.348;2023-04-05T04:31:12;96756.75;;;-3.22;100.00
30339;BME280;795;49.296;11.348;2023-04-05T04:33:39;96754.81;;;-3.53;100.00
30339;BME280;795;49.296;11.348;2023-04-05T04:36:09;96732.31;;;-3.75;100.00
30339;BME280;795;49.296;11.348;2023-04-05T04:38:42;96760.97;;;-3.71;100.00
30339;BME280;795;49.296;11.348;2023-04-05T04:41:12;96755.34;;;-3.80;100.00
30339;BME280;795;49.296;11.348;2023-04-05T04:43:39;96776.19;;;-3.96;100.00
30339;BME280;795;49.296;11.348;2023-04-05T04:46:09;96747.97;;;-3.91;100.00
30339;BME280;795;49.296;11.348;2023-04-05T04:48:41;96756.19;;;-3.63;100.00
30339;BME280;795;49.296;11.348;2023-04-05T04:51:08;96753.88;;;-3.69;100.00
30339;BME280;795;49.296;11.348;2023-04-05T04:53:35;96739.75;;;-4.02;100.00
30339;BME280;795;49.296;11.348;2023-04-05T04:56:07;96709.06;;;-4.17;100.00
30339;BME280;795;49.296;11.348;2023-04-05T04:58:34;96752.66;;;-3.97;100.00
30339;BME280;795;49.296;11.348;2023-04-05T05:01:07;96761.53;;;-4.00;100.00
30339;BME280;795;49.296;11.348;2023-04-05T05:03:36;96753.94;;;-4.06;100.00
30339;BME280;795;49.296;11.348;2023-04-05T05:06:05;96762.88;;;-4.10;100.00
30339;BME280;795;49.296;11.348;2023-04-05T05:08:33;96758.81;;;-3.98;100.00
30339;BME280;795;49.296;11.348;2023-04-05T05:11:00;96744.16;;;-4.21;100.00
30339;BME280;795;49.296;11.348;2023-04-05T05:13:27;96746.53;;;-4.15;100.00
30339;BME280;795;49.296;11.348;2023-04-05T05:15:54;96773.88;;;-3.85;100.00
30339;BME280;795;49.296;11.348;2023-04-05T05:18:21;96760.59;;;-3.80;100.00
30339;BME280;795;49.296;11.348;2023-04-05T05:20:51;96765.06;;;-3.65;100.00
30339;BME280;795;49.296;11.348;2023-04-05T05:23:18;96741.63;;;-3.68;100.00
30339;BME280;795;49.296;11.348;2023-04-05T05:25:46;96756.66;;;-3.72;100.00
30339;BME280;795;49.296;11.348;2023-04-05T05:28:13;96709.31;;;-3.52;100.00
30339;BME280;795;49.296;11.348;2023-04-05T05:30:40;96752.13;;;-3.34;100.00
30339;BME280;795;49.296;11.348;2023-04-05T05:33:08;96670.22;;;-3.41;100.00
30339;BME280;795;49.296;11.348;2023-04-05T05:35:35;96741.94;;;-2.73;100.00
30339;BME280;795;49.296;11.348;2023-04-05T05:38:03;96698.19;;;-2.90;100.00
30339;BME280;795;49.296;11.348;2023-04-05T05:40:33;96771.81;;;-2.10;100.00
30339;BME280;795;49.296;11.348;2023-04-05T05:43:00;96774.47;;;-1.79;100.00
30339;BME280;795;49.296;11.348;2023-04-05T05:45:27;96777.06;;;-1.32;100.00
30339;BME280;795;49.296;11.348;2023-04-05T05:47:55;96777.34;;;-0.63;100.00
30339;BME280;795;49.296;11.348;2023-04-05T05:50:22;96708.19;;;-0.96;100.00
30339;BME280;795;49.296;11.348;2023-04-05T05:52:49;96777.72;;;-0.13;93.80
30339;BME280;795;49.296;11.348;2023-04-05T05:55:16;96733.88;;;-0.01;87.37
30339;BME280;795;49.296;11.348;2023-04-05T05:57:43;96775.19;;;0.27;86.74
30339;BME280;795;49.296;11.348;2023-04-05T06:00:11;96730.16;;;0.16;85.30
30339;BME280;795;49.296;11.348;2023-04-05T06:02:38;96763.41;;;0.86;80.18
30339;BME280;795;49.296;11.348;2023-04-05T06:05:06;96729.28;;;0.56;73.26
30339;BME280;795;49.296;11.348;2023-04-05T06:07:36;96779.69;;;0.92;73.53
30339;BME280;795;49.296;11.348;2023-04-05T06:10:06;96782.06;;;1.09;71.31
30339;BME280;795;49.296;11.348;2023-04-05T06:12:33;96747.59;;;0.98;70.60
30339;BME280;795;49.296;11.348;2023-04-05T06:15:01;96737.84;;;0.86;69.42
30339;BME280;795;49.296;11.348;2023-04-05T06:17:28;96735.84;;;0.63;69.08
30339;BME280;795;49.296;11.348;2023-04-05T06:19:55;96785.91;;;1.18;68.12
30339;BME280;795;49.296;11.348;2023-04-05T06:22:22;96796.50;;;1.30;67.73
30339;BME280;795;49.296;11.348;2023-04-05T06:24:49;96793.66;;;1.46;66.40
30339;BME280;795;49.296;11.348;2023-04-05T06:27:16;96774.75;;;1.52;66.73
30339;BME280;795;49.296;11.348;2023-04-05T06:29:43;96715.56;;;1.15;66.10
30339;BME280;795;49.296;11.348;2023-04-05T06:32:10;96793.03;;;1.55;65.29
30339;BME280;795;49.296;11.348;2023-04-05T06:34:36;96787.41;;;1.34;66.96
30339;BME280;795;49.296;11.348;2023-04-05T06:37:03;96761.13;;;1.19;67.50
30339;BME280;795;49.296;11.348;2023-04-05T06:39:30;96765.88;;;1.14;67.57
30339;BME280;795;49.296;11.348;2023-04-05T06:41:57;96780.00;;;1.27;66.83
30339;BME280;795;49.296;11.348;2023-04-05T06:44:24;96747.47;;;1.00;66.96
30339;BME280;795;49.296;11.348;2023-04-05T06:46:51;96790.03;;;1.22;67.00
30339;BME280;795;49.296;11.348;2023-04-05T06:49:18;96765.84;;;1.28;66.98
30339;BME280;795;49.296;11.348;2023-04-05T06:51:45;96797.19;;;1.59;65.84
30339;BME280;795;49.296;11.348;2023-04-05T06:54:12;96727.41;;;1.22;65.47
30339;BME280;795;49.296;11.348;2023-04-05T06:56:39;96786.38;;;1.75;65.71
30339;BME280;795;49.296;11.348;2023-04-05T06:59:06;96770.41;;;1.64;64.81
30339;BME280;795;49.296;11.348;2023-04-05T07:01:33;96789.22;;;1.84;64.83
30339;BME280;795;49.296;11.348;2023-04-05T07:04:00;96789.66;;;1.91;65.62
30339;BME280;795;49.296;11.348;2023-04-05T07:06:27;96754.94;;;1.70;64.00
30339;BME280;795;49.296;11.348;2023-04-05T07:08:54;96800.00;;;2.07;64.73
30339;BME280;795;49.296;11.348;2023-04-05T07:11:21;96696.72;;;1.58;63.40
30339;BME280;795;49.296;11.348;2023-04-05T07:13:48;96786.72;;;2.44;63.09
30339;BME280;795;49.296;11.348;2023-04-05T07:16:15;96778.50;;;2.47;61.48
30339;BME280;795;49.296;11.348;2023-04-05T07:18:43;96744.03;;;2.24;61.29
30339;BME280;795;49.296;11.348;2023-04-05T07:21:11;96799.97;;;2.68;61.64
30339;BME280;795;49.296;11.348;2023-04-05T07:23:37;96761.03;;;2.45;61.03
30339;BME280;795;49.296;11.348;2023-04-05T07:26:04;96801.56;;;2.71;59.68
30339;BME280;795;49.296;11.348;2023-04-05T07:28:34;96743.28;;;2.34;59.97
30339;BME280;795;49.296;11.348;2023-04-05T07:31:04;96742.97;;;2.26;59.16
30339;BME280;795;49.296;11.348;2023-04-05T07:33:32;96781.53;;;2.66;59.07
30339;BME280;795;49.296;11.348;2023-04-05T07:36:00;96720.00;;;2.74;57.41
30339;BME280;795;49.296;11.348;2023-04-05T07:38:27;96796.31;;;3.29;57.24
30339;BME280;795;49.296;11.348;2023-04-05T07:40:55;96808.19;;;3.12;56.34
30339;BME280;795;49.296;11.348;2023-04-05T07:43:22;96799.06;;;3.04;56.73
30339;BME280;795;49.296;11.348;2023-04-05T07:45:51;96744.44;;;2.90;56.25
30339;BME280;795;49.296;11.348;2023-04-05T07:48:22;96775.09;;;3.05;56.19
30339;BME280;795;49.296;11.348;2023-04-05T07:50:48;96705.06;;;2.73;55.64
30339;BME280;795;49.296;11.348;2023-04-05T07:53:18;96779.13;;;3.57;53.23
30339;BME280;795;49.296;11.348;2023-04-05T07:55:45;96774.50;;;3.37;53.18
30339;BME280;795;49.296;11.348;2023-04-05T07:58:12;96788.06;;;3.67;52.87
30339;BME280;795;49.296;11.348;2023-04-05T08:03:47;96731.00;;;4.06;50.76
30339;BME280;795;49.296;11.348;2023-04-05T08:06:15;96733.88;;;3.58;50.67
30339;BME280;795;49.296;11.348;2023-04-05T08:08:46;96731.59;;;3.65;51.27
30339;BME280;795;49.296;11.348;2023-04-05T08:11:13;96790.88;;;4.10;50.63
30339;BME280;795;49.296;11.348;2023-04-05T08:13:40;96793.69;;;4.30;49.46
30339;BME280;795;49.296;11.348;2023-04-05T08:16:09;96697.19;;;3.85;49.90
30339;BME280;795;49.296;11.348;2023-04-05T08:18:37;96728.31;;;4.50;49.82
30339;BME280;795;49.296;11.348;2023-04-05T08:21:04;96731.09;;;5.12;49.01
30339;BME280;795;49.296;11.348;2023-04-05T08:23:31;96705.66;;;5.19;47.79
30339;BME280;795;49.296;11.348;2023-04-05T08:25:58;96734.69;;;5.63;47.69
30339;BME280;795;49.296;11.348;2023-04-05T08:28:25;96723.41;;;5.71;45.80
30339;BME280;795;49.296;11.348;2023-04-05T08:30:53;96734.66;;;5.84;46.85
30339;BME280;795;49.296;11.348;2023-04-05T08:33:21;96749.25;;;6.00;44.51
30339;BME280;795;49.296;11.348;2023-04-05T08:35:48;96667.16;;;5.64;44.98
30339;BME280;795;49.296;11.348;2023-04-05T08:38:15;96722.69;;;6.20;44.63
30339;BME280;795;49.296;11.348;2023-04-05T08:40:46;96776.91;;;6.79;43.64
30339;BME280;795;49.296;11.348;2023-04-05T08:43:39;96779.38;;;7.40;44.46
30339;BME280;795;49.296;11.348;2023-04-05T08:46:15;96722.59;;;6.99;43.13
30339;BME280;795;49.296;11.348;2023-04-05T08:48:43;96753.91;;;6.97;42.50
30339;BME280;795;49.296;11.348;2023-04-05T08:51:10;96748.16;;;6.43;44.30
30339;BME280;795;49.296;11.348;2023-04-05T08:53:37;96767.97;;;7.18;42.54
30339;BME280;795;49.296;11.348;2023-04-05T08:56:06;96725.06;;;7.58;40.45
30339;BME280;795;49.296;11.348;2023-04-05T08:58:37;96734.25;;;8.02;40.55
30339;BME280;795;49.296;11.348;2023-04-05T09:01:06;96781.34;;;8.68;41.29
30339;BME280;795;49.296;11.348;2023-04-05T09:03:40;96719.91;;;9.47;39.21
30339;BME280;795;49.296;11.348;2023-04-05T09:06:11;96788.88;;;8.83;37.65
30339;BME280;795;49.296;11.348;2023-04-05T09:08:39;96742.28;;;9.38;36.12
30339;BME280;795;49.296;11.348;2023-04-05T09:11:07;96728.47;;;8.53;37.99
30339;BME280;795;49.296;11.348;2023-04-05T09:13:33;96715.84;;;7.24;39.31
30339;BME280;795;49.296;11.348;2023-04-05T09:16:01;96755.59;;;7.08;40.40
30339;BME280;795;49.296;11.348;2023-04-05T09:18:28;96716.09;;;6.63;40.75
30339;BME280;795;49.296;11.348;2023-04-05T09:21:04;96793.81;;;7.18;41.06
30339;BME280;795;49.296;11.348;2023-04-05T09:23:36;96727.88;;;8.22;39.71
30339;BME280;795;49.296;11.348;2023-04-05T09:26:23;96778.84;;;8.57;39.05
30339;BME280;795;49.296;11.348;2023-04-05T09:28:51;96785.75;;;9.32;38.56
30339;BME280;795;49.296;11.348;2023-04-05T09:31:34;96779.97;;;9.54;36.29
30339;BME280;795;49.296;11.348;2023-04-05T09:34:05;96755.44;;;10.70;35.47
30339;BME280;795;49.296;11.348;2023-04-05T09:36:42;96767.28;;;10.93;34.01
30339;BME280;795;49.296;11.348;2023-04-05T09:39:10;96760.69;;;10.45;35.51
30339;BME280;795;49.296;11.348;2023-04-05T09:41:38;96680.22;;;9.94;33.96
30339;BME280;795;49.296;11.348;2023-04-05T09:44:05;96738.69;;;11.42;33.97
30339;BME280;795;49.296;11.348;2023-04-05T09:46:34;96766.47;;;12.15;33.43
30339;BME280;795;49.296;11.348;2023-04-05T09:49:04;96769.13;;;12.31;33.93
30339;BME280;795;49.296;11.348;2023-04-05T09:51:36;96768.88;;;11.19;33.07
30339;BME280;795;49.296;11.348;2023-04-05T09:54:09;96725.44;;;11.64;32.72
30339;BME280;795;49.296;11.348;2023-04-05T09:56:39;96689.97;;;11.85;32.97
30339;BME280;795;49.296;11.348;2023-04-05T09:59:10;96768.22;;;10.42;34.21
30339;BME280;795;49.296;11.348;2023-04-05T10:01:43;96725.91;;;9.84;34.88
30339;BME280;795;49.296;11.348;2023-04-05T10:04:10;96778.28;;;11.15;33.94
30339;BME280;795;49.296;11.348;2023-04-05T10:06:41;96773.47;;;11.43;32.97
30339;BME280;795;49.296;11.348;2023-04-05T10:09:10;96653.53;;;10.18;33.09
30339;BME280;795;49.296;11.348;2023-04-05T10:11:38;96722.16;;;10.03;34.60
30339;BME280;795;49.296;11.348;2023-04-05T10:14:07;96763.59;;;9.83;35.26
30339;BME280;795;49.296;11.348;2023-04-05T10:17:19;96763.16;;;11.06;33.24
30339;BME280;795;49.296;11.348;2023-04-05T10:20:09;96771.75;;;12.63;30.21
30339;BME280;795;49.296;11.348;2023-04-05T10:28:41;96668.19;;;13.72;29.15
30339;BME280;795;49.296;11.348;2023-04-05T10:31:32;96742.25;;;13.16;30.08
30339;BME280;795;49.296;11.348;2023-04-05T10:34:07;96714.97;;;12.26;30.43
30339;BME280;795;49.296;11.348;2023-04-05T10:36:56;96708.72;;;9.95;32.67
30339;BME280;795;49.296;11.348;2023-04-05T10:39:39;96739.56;;;10.17;33.62
30339;BME280;795;49.296;11.348;2023-04-05T10:42:27;96695.53;;;8.70;34.31
30339;BME280;795;49.296;11.348;2023-04-05T10:45:02;96674.88;;;9.76;33.87
30339;BME280;795;49.296;11.348;2023-04-05T10:47:42;96752.63;;;12.34;32.56
30339;BME280;795;49.296;11.348;2023-04-05T10:50:21;96717.34;;;12.76;30.94
30339;BME280;795;49.296;11.348;2023-04-05T10:52:51;96734.06;;;14.01;29.29
30339;BME280;795;49.296;11.348;2023-04-05T10:55:19;96663.78;;;13.94;28.60
30339;BME280;795;49.296;11.348;2023-04-05T10:57:49;96659.88;;;13.14;29.72
30339;BME280;795;49.296;11.348;2023-04-05T11:00:17;96749.47;;;12.30;29.97
30339;BME280;795;49.296;11.348;2023-04-05T11:02:47;96703.13;;;11.72;31.69
30339;BME280;795;49.296;11.348;2023-04-05T11:05:30;96755.50;;;12.32;29.83
30339;BME280;795;49.296;11.348;2023-04-05T11:08:10;96748.16;;;11.78;31.04
30339;BME280;795;49.296;11.348;2023-04-05T11:10:39;96700.66;;;13.11;31.31
30339;BME280;795;49.296;11.348;2023-04-05T11:13:08;96758.06;;;16.13;26.97
30339;BME280;795;49.296;11.348;2023-04-05T11:15:37;96672.38;;;15.57;27.14
30339;BME280;795;49.296;11.348;2023-04-05T11:18:23;96638.03;;;15.78;25.80
30339;BME280;795;49.296;11.348;2023-04-05T11:21:07;96684.81;;;16.21;25.23
30339;BME280;795;49.296;11.348;2023-04-05T11:29:06;96740.25;;;14.61;26.83
30339;BME280;795;49.296;11.348;2023-04-05T11:31:33;96733.31;;;15.02;27.59
30339;BME280;795;49.296;11.348;2023-04-05T11:34:05;96729.47;;;15.62;25.82
30339;BME280;795;49.296;11.348;2023-04-05T11:36:49;96708.91;;;15.67;26.02
30339;BME280;795;49.296;11.348;2023-04-05T11:42:03;96733.69;;;15.64;26.83
30339;BME280;795;49.296;11.348;2023-04-05T11:44:42;96683.31;;;16.46;25.24
30339;BME280;795;49.296;11.348;2023-04-05T11:47:10;96709.91;;;16.09;24.94
30339;BME280;795;49.296;11.348;2023-04-05T11:49:39;96733.66;;;17.37;24.84
30339;BME280;795;49.296;11.348;2023-04-05T11:52:14;96719.38;;;17.69;23.52
30339;BME280;795;49.296;11.348;2023-04-05T11:54:43;96697.56;;;16.27;24.13
30339;BME280;795;49.296;11.348;2023-04-05T11:57:23;96662.09;;;13.33;27.46
30339;BME280;795;49.296;11.348;2023-04-05T11:59:52;96688.00;;;15.55;26.32
30339;BME280;795;49.296;11.348;2023-04-05T12:02:21;96661.22;;;15.09;26.14
30339;BME280;795;49.296;11.348;2023-04-05T12:04:56;96713.84;;;14.92;27.20
30339;BME280;795;49.296;11.348;2023-04-05T12:07:27;96662.84;;;16.72;24.79
30339;BME280;795;49.296;11.348;2023-04-05T12:10:07;96655.94;;;17.16;24.91
30339;BME280;795;49.296;11.348;2023-04-05T12:12:43;96701.69;;;15.96;25.30
30339;BME280;795;49.296;11.348;2023-04-05T12:15:13;96698.97;;;13.63;28.76
30339;BME280;795;49.296;11.348;2023-04-05T12:17:50;96691.44;;;12.20;31.49
30339;BME280;795;49.296;11.348;2023-04-05T12:20:23;96690.34;;;11.82;31.10
30339;BME280;795;49.296;11.348;2023-04-05T12:22:54;96674.84;;;11.44;31.82
30339;BME280;795;49.296;11.348;2023-04-05T12:25:23;96615.28;;;10.58;32.59
30339;BME280;795;49.296;11.348;2023-04-05T12:27:50;96627.41;;;9.94;32.40
30339;BME280;795;49.296;11.348;2023-04-05T12:30:20;96632.06;;;9.59;32.90
30339;BME280;795;49.296;11.348;2023-04-05T12:32:55;96654.53;;;9.40;32.46
30339;BME280;795;49.296;11.348;2023-04-05T12:35:28;96618.47;;;10.12;31.86
30339;BME280;795;49.296;11.348;2023-04-05T12:38:01;96664.44;;;11.41;30.59
30339;BME280;795;49.296;11.348;2023-04-05T12:40:29;96624.59;;;13.23;28.94
30339;BME280;795;49.296;11.348;2023-04-05T12:43:04;96676.22;;;15.12;26.73
30339;BME280;795;49.296;11.348;2023-04-05T12:45:32;96601.34;;;16.38;25.43
30339;BME280;795;49.296;11.348;2023-04-05T12:48:28;96648.78;;;17.69;24.21
30339;BME280;795;49.296;11.348;2023-04-05T12:50:55;96619.19;;;16.53;24.67
30339;BME280;795;49.296;11.348;2023-04-05T12:53:25;96618.13;;;17.02;23.81
30339;BME280;795;49.296;11.348;2023-04-05T12:55:56;96649.63;;;17.96;22.77
30339;BME280;795;49.296;11.348;2023-04-05T12:58:34;96673.84;;;17.58;24.17
30339;BME280;795;49.296;11.348;2023-04-05T13:01:03;96678.34;;;15.94;25.24
30339;BME280;795;49.296;11.348;2023-04-05T13:03:30;96561.06;;;15.60;25.03
30339;BME280;795;49.296;11.348;2023-04-05T13:05:57;96636.53;;;16.04;25.63
30339;BME280;795;49.296;11.348;2023-04-05T13:08:24;96604.41;;;16.28;24.39
30339;BME280;795;49.296;11.348;2023-04-05T13:10:52;96603.28;;;14.61;26.03
30339;BME280;795;49.296;11.348;2023-04-05T13:13:23;96552.63;;;15.48;24.73
30339;BME280;795;49.296;11.348;2023-04-05T13:15:50;96650.03;;;17.73;23.62
30339;BME280;795;49.296;11.348;2023-04-05T13:18:18;96641.44;;;18.62;23.28
30339;BME280;795;49.296;11.348;2023-04-05T13:20:45;96545.97;;;17.92;23.27
30339;BME280;795;49.296;11.348;2023-04-05T13:23:12;96558.91;;;15.83;24.98
30339;BME280;795;49.296;11.348;2023-04-05T13:25:42;96651.22;;;16.16;25.26
30339;BME280;795;49.296;11.348;2023-04-05T13:28:11;96641.78;;;15.56;26.22
30339;BME280;795;49.296;11.348;2023-04-05T13:30:38;96642.34;;;13.41;28.26
30339;BME280;795;49.296;11.348;2023-04-05T13:33:05;96639.22;;;11.50;30.77
30339;BME280;795;49.296;11.348;2023-04-05T13:35:32;96504.94;;;9.69;32.18
30339;BME280;795;49.296;11.348;2023-04-05T13:37:59;96606.81;;;9.18;34.25
30339;BME280;795;49.296;11.348;2023-04-05T13:40:31;96589.16;;;8.90;34.22
30339;BME280;795;49.296;11.348;2023-04-05T13:42:58;96509.31;;;8.15;34.86
30339;BME280;795;49.296;11.348;2023-04-05T13:45:25;96491.09;;;7.65;35.35
30339;BME280;795;49.296;11.348;2023-04-05T13:47:53;96625.44;;;9.45;35.17